sensor_id;sensor_type;location;lat;lon;timestamp;P1;durP1;ratioP1;P2;durP2;ratioP2
26163;SDS011;13914;48.178;11.716;2023-06-05T00:02:09;11.20;;;4.60;;
26163;SDS011;13914;48.178;11.716;2023-06-05T00:04:35;11.30;;;4.60;;
26163;SDS011;13914;48.178;11.716;2023-06-05T00:07:01;9.75;;;5.13;;
26163;SDS011;13914;48.178;11.716;2023-06-05T00:09:28;10.82;;;5.30;;
26163;SDS011;13914;48.178;11.716;2023-06-05T00:11:53;11.40;;;5.07;;
26163;SDS011;13914;48.178;11.716;2023-06-05T00:14:19;7.53;;;4.72;;
26163;SDS011;13914;48.178;11.716;2023-06-05T00:16:45;9.43;;;4.80;;
26163;SDS011;13914;48.178;11.716;2023-06-05T00:19:11;7.28;;;4.40;;
26163;SDS011;13914;48.178;11.716;2023-06-05T00:21:37;7.68;;;4.43;;
26163;SDS011;13914;48.178;11.716;2023-06-05T00:24:03;9.55;;;4.75;;
26163;SDS011;13914;48.178;11.716;2023-06-05T00:26:29;10.52;;;5.05;;
26163;SDS011;13914;48.178;11.716;2023-06-05T00:28:55;11.63;;;5.90;;
26163;SDS011;13914;48.178;11.716;2023-06-05T00:31:21;8.70;;;5.30;;
26163;SDS011;13914;48.178;11.716;2023-06-05T00:33:47;10.38;;;5.53;;
26163;SDS011;13914;48.178;11.716;2023-06-05T00:36:13;9.18;;;5.18;;
26163;SDS011;13914;48.178;11.716;2023-06-05T00:38:39;8.95;;;5.38;;
26163;SDS011;13914;48.178;11.716;2023-06-05T00:41:05;9.43;;;5.63;;
26163;SDS011;13914;48.178;11.716;2023-06-05T00:43:31;7.88;;;4.85;;
26163;SDS011;13914;48.178;11.716;2023-06-05T00:45:58;11.35;;;6.13;;
26163;SDS011;13914;48.178;11.716;2023-06-05T00:48:28;11.88;;;5.82;;
26163;SDS011;13914;48.178;11.716;2023-06-05T00:50:55;10.20;;;5.65;;
26163;SDS011;13914;48.178;11.716;2023-06-05T00:53:22;11.20;;;5.57;;
26163;SDS011;13914;48.178;11.716;2023-06-05T00:55:49;9.60;;;5.78;;
26163;SDS011;13914;48.178;11.716;2023-06-05T00:58:16;8.68;;;5.53;;
26163;SDS011;13914;48.178;11.716;2023-06-05T01:00:43;10.38;;;6.45;;
26163;SDS011;13914;48.178;11.716;2023-06-05T01:05:36;10.45;;;6.25;;
26163;SDS011;13914;48.178;11.716;2023-06-05T01:08:03;10.55;;;5.68;;
26163;SDS011;13914;48.178;11.716;2023-06-05T01:10:31;9.07;;;5.03;;
26163;SDS011;13914;48.178;11.716;2023-06-05T01:15:28;11.20;;;5.65;;
26163;SDS011;13914;48.178;11.716;2023-06-05T01:17:58;9.23;;;5.90;;
26163;SDS011;13914;48.178;11.716;2023-06-05T01:20:34;10.52;;;6.55;;
26163;SDS011;13914;48.178;11.716;2023-06-05T01:23:02;10.38;;;6.22;;
26163;SDS011;13914;48.178;11.716;2023-06-05T01:25:32;11.93;;;6.38;;
26163;SDS011;13914;48.178;11.716;2023-06-05T01:28:20;13.90;;;7.05;;
26163;SDS011;13914;48.178;11.716;2023-06-05T01:30:52;12.13;;;6.50;;
26163;SDS011;13914;48.178;11.716;2023-06-05T01:33:32;12.38;;;6.70;;
26163;SDS011;13914;48.178;11.716;2023-06-05T01:36:08;12.10;;;6.77;;
26163;SDS011;13914;48.178;11.716;2023-06-05T01:38:39;9.68;;;5.82;;
26163;SDS011;13914;48.178;11.716;2023-06-05T01:41:07;10.63;;;6.30;;
26163;SDS011;13914;48.178;11.716;2023-06-05T01:43:38;12.25;;;5.60;;
26163;SDS011;13914;48.178;11.716;2023-06-05T01:46:05;15.73;;;6.93;;
26163;SDS011;13914;48.178;11.716;2023-06-05T01:48:33;11.73;;;7.05;;
26163;SDS011;13914;48.178;11.716;2023-06-05T01:51:00;11.45;;;5.03;;
26163;SDS011;13914;48.178;11.716;2023-06-05T01:55:54;7.82;;;5.70;;
26163;SDS011;13914;48.178;11.716;2023-06-05T01:58:23;14.30;;;6.85;;
26163;SDS011;13914;48.178;11.716;2023-06-05T02:00:50;7.93;;;5.60;;
26163;SDS011;13914;48.178;11.716;2023-06-05T02:03:17;9.57;;;6.00;;
26163;SDS011;13914;48.178;11.716;2023-06-05T02:05:43;7.55;;;5.28;;
26163;SDS011;13914;48.178;11.716;2023-06-05T02:08:10;10.10;;;5.82;;
26163;SDS011;13914;48.178;11.716;2023-06-05T02:10:36;10.38;;;6.25;;
26163;SDS011;13914;48.178;11.716;2023-06-05T02:13:08;9.25;;;5.68;;
26163;SDS011;13914;48.178;11.716;2023-06-05T02:15:34;9.23;;;6.30;;
26163;SDS011;13914;48.178;11.716;2023-06-05T02:18:01;8.43;;;5.20;;
26163;SDS011;13914;48.178;11.716;2023-06-05T02:20:29;9.93;;;5.57;;
26163;SDS011;13914;48.178;11.716;2023-06-05T02:22:56;9.48;;;6.30;;
26163;SDS011;13914;48.178;11.716;2023-06-05T02:25:22;11.30;;;6.55;;
26163;SDS011;13914;48.178;11.716;2023-06-05T02:27:50;9.13;;;5.72;;
26163;SDS011;13914;48.178;11.716;2023-06-05T02:30:17;9.98;;;6.18;;
26163;SDS011;13914;48.178;11.716;2023-06-05T02:32:43;7.35;;;4.88;;
26163;SDS011;13914;48.178;11.716;2023-06-05T02:35:09;12.02;;;6.40;;
26163;SDS011;13914;48.178;11.716;2023-06-05T02:37:37;9.73;;;6.88;;
26163;SDS011;13914;48.178;11.716;2023-06-05T02:40:08;9.38;;;5.70;;
26163;SDS011;13914;48.178;11.716;2023-06-05T02:42:35;7.38;;;5.30;;
26163;SDS011;13914;48.178;11.716;2023-06-05T02:47:29;8.68;;;6.07;;
26163;SDS011;13914;48.178;11.716;2023-06-05T02:49:56;7.65;;;5.63;;
26163;SDS011;13914;48.178;11.716;2023-06-05T02:52:22;10.80;;;5.78;;
26163;SDS011;13914;48.178;11.716;2023-06-05T02:54:49;8.85;;;6.13;;
26163;SDS011;13914;48.178;11.716;2023-06-05T02:57:16;11.15;;;5.82;;
26163;SDS011;13914;48.178;11.716;2023-06-05T02:59:43;7.88;;;5.63;;
26163;SDS011;13914;48.178;11.716;2023-06-05T03:02:09;8.10;;;5.50;;
26163;SDS011;13914;48.178;11.716;2023-06-05T03:04:36;10.82;;;6.03;;
26163;SDS011;13914;48.178;11.716;2023-06-05T03:07:05;8.73;;;6.22;;
26163;SDS011;13914;48.178;11.716;2023-06-05T03:09:34;9.65;;;6.25;;
26163;SDS011;13914;48.178;11.716;2023-06-05T03:12:01;10.65;;;6.22;;
26163;SDS011;13914;48.178;11.716;2023-06-05T03:14:27;8.82;;;6.20;;
26163;SDS011;13914;48.178;11.716;2023-06-05T03:16:53;15.00;;;6.57;;
26163;SDS011;13914;48.178;11.716;2023-06-05T03:19:19;8.77;;;6.05;;
26163;SDS011;13914;48.178;11.716;2023-06-05T03:21:45;9.63;;;5.65;;
26163;SDS011;13914;48.178;11.716;2023-06-05T03:24:13;7.82;;;5.15;;
26163;SDS011;13914;48.178;11.716;2023-06-05T03:26:43;9.15;;;6.07;;
26163;SDS011;13914;48.178;11.716;2023-06-05T03:29:10;12.45;;;7.10;;
26163;SDS011;13914;48.178;11.716;2023-06-05T03:31:37;8.25;;;6.25;;
26163;SDS011;13914;48.178;11.716;2023-06-05T03:34:03;9.98;;;6.40;;
26163;SDS011;13914;48.178;11.716;2023-06-05T03:36:29;10.55;;;6.38;;
26163;SDS011;13914;48.178;11.716;2023-06-05T03:38:58;11.25;;;5.78;;
26163;SDS011;13914;48.178;11.716;2023-06-05T03:41:24;8.80;;;6.07;;
26163;SDS011;13914;48.178;11.716;2023-06-05T03:43:50;11.07;;;5.78;;
26163;SDS011;13914;48.178;11.716;2023-06-05T03:46:16;7.75;;;5.43;;
26163;SDS011;13914;48.178;11.716;2023-06-05T03:48:46;10.98;;;5.90;;
26163;SDS011;13914;48.178;11.716;2023-06-05T03:51:14;8.38;;;5.20;;
26163;SDS011;13914;48.178;11.716;2023-06-05T03:53:43;9.13;;;5.45;;
26163;SDS011;13914;48.178;11.716;2023-06-05T03:58:36;8.23;;;5.60;;
26163;SDS011;13914;48.178;11.716;2023-06-05T04:01:03;9.48;;;5.47;;
26163;SDS011;13914;48.178;11.716;2023-06-05T04:03:29;11.48;;;6.40;;
26163;SDS011;13914;48.178;11.716;2023-06-05T04:05:55;12.88;;;6.63;;
26163;SDS011;13914;48.178;11.716;2023-06-05T04:08:21;15.85;;;7.90;;
26163;SDS011;13914;48.178;11.716;2023-06-05T04:10:47;18.05;;;6.95;;
26163;SDS011;13914;48.178;11.716;2023-06-05T04:13:13;11.27;;;7.63;;
26163;SDS011;13914;48.178;11.716;2023-06-05T04:15:39;13.07;;;6.32;;
26163;SDS011;13914;48.178;11.716;2023-06-05T04:18:05;13.95;;;7.78;;
26163;SDS011;13914;48.178;11.716;2023-06-05T04:20:30;11.68;;;6.35;;
26163;SDS011;13914;48.178;11.716;2023-06-05T04:22:56;8.80;;;6.50;;
26163;SDS011;13914;48.178;11.716;2023-06-05T04:25:22;10.87;;;5.97;;
26163;SDS011;13914;48.178;11.716;2023-06-05T04:27:48;9.35;;;6.25;;
26163;SDS011;13914;48.178;11.716;2023-06-05T04:30:16;9.43;;;6.65;;
26163;SDS011;13914;48.178;11.716;2023-06-05T04:32:42;12.32;;;6.07;;
26163;SDS011;13914;48.178;11.716;2023-06-05T04:35:18;15.77;;;6.53;;
26163;SDS011;13914;48.178;11.716;2023-06-05T04:37:44;11.35;;;6.80;;
26163;SDS011;13914;48.178;11.716;2023-06-05T04:40:10;18.17;;;6.43;;
26163;SDS011;13914;48.178;11.716;2023-06-05T04:42:36;15.02;;;7.35;;
26163;SDS011;13914;48.178;11.716;2023-06-05T04:45:06;15.07;;;7.03;;
26163;SDS011;13914;48.178;11.716;2023-06-05T04:47:36;15.05;;;7.00;;
26163;SDS011;13914;48.178;11.716;2023-06-05T04:50:03;13.80;;;6.85;;
26163;SDS011;13914;48.178;11.716;2023-06-05T04:52:31;10.43;;;7.25;;
26163;SDS011;13914;48.178;11.716;2023-06-05T04:55:00;12.55;;;8.32;;
26163;SDS011;13914;48.178;11.716;2023-06-05T04:57:27;14.02;;;6.88;;
26163;SDS011;13914;48.178;11.716;2023-06-05T05:04:46;13.30;;;7.00;;
26163;SDS011;13914;48.178;11.716;2023-06-05T05:09:44;11.82;;;7.60;;
26163;SDS011;13914;48.178;11.716;2023-06-05T05:12:10;11.55;;;7.10;;
26163;SDS011;13914;48.178;11.716;2023-06-05T05:14:36;11.93;;;6.68;;
26163;SDS011;13914;48.178;11.716;2023-06-05T05:17:03;13.88;;;8.30;;
26163;SDS011;13914;48.178;11.716;2023-06-05T05:19:29;18.13;;;7.43;;
26163;SDS011;13914;48.178;11.716;2023-06-05T05:21:55;16.75;;;8.18;;
26163;SDS011;13914;48.178;11.716;2023-06-05T05:24:21;15.45;;;8.50;;
26163;SDS011;13914;48.178;11.716;2023-06-05T05:26:48;17.75;;;8.45;;
26163;SDS011;13914;48.178;11.716;2023-06-05T05:29:15;15.77;;;7.75;;
26163;SDS011;13914;48.178;11.716;2023-06-05T05:31:41;16.35;;;8.90;;
26163;SDS011;13914;48.178;11.716;2023-06-05T05:34:07;10.02;;;7.40;;
26163;SDS011;13914;48.178;11.716;2023-06-05T05:36:33;17.23;;;8.17;;
26163;SDS011;13914;48.178;11.716;2023-06-05T05:38:59;15.27;;;8.18;;
26163;SDS011;13914;48.178;11.716;2023-06-05T05:41:25;20.30;;;8.63;;
26163;SDS011;13914;48.178;11.716;2023-06-05T05:43:51;19.55;;;9.25;;
26163;SDS011;13914;48.178;11.716;2023-06-05T05:46:17;22.60;;;9.10;;
26163;SDS011;13914;48.178;11.716;2023-06-05T05:48:43;22.58;;;9.25;;
26163;SDS011;13914;48.178;11.716;2023-06-05T05:51:09;17.92;;;9.30;;
26163;SDS011;13914;48.178;11.716;2023-06-05T05:53:34;13.30;;;8.65;;
26163;SDS011;13914;48.178;11.716;2023-06-05T05:58:28;15.93;;;8.45;;
26163;SDS011;13914;48.178;11.716;2023-06-05T06:00:53;21.85;;;9.30;;
26163;SDS011;13914;48.178;11.716;2023-06-05T06:03:20;11.90;;;7.65;;
26163;SDS011;13914;48.178;11.716;2023-06-05T06:05:48;13.85;;;8.82;;
26163;SDS011;13914;48.178;11.716;2023-06-05T06:08:14;20.17;;;8.48;;
26163;SDS011;13914;48.178;11.716;2023-06-05T06:10:41;17.20;;;7.88;;
26163;SDS011;13914;48.178;11.716;2023-06-05T06:13:07;17.83;;;7.68;;
26163;SDS011;13914;48.178;11.716;2023-06-05T06:15:33;17.35;;;9.23;;
26163;SDS011;13914;48.178;11.716;2023-06-05T06:17:59;11.90;;;8.00;;
26163;SDS011;13914;48.178;11.716;2023-06-05T06:20:28;13.30;;;7.90;;
26163;SDS011;13914;48.178;11.716;2023-06-05T06:22:54;15.88;;;7.60;;
26163;SDS011;13914;48.178;11.716;2023-06-05T06:25:20;17.15;;;6.63;;
26163;SDS011;13914;48.178;11.716;2023-06-05T06:27:51;21.30;;;7.97;;
26163;SDS011;13914;48.178;11.716;2023-06-05T06:30:18;12.75;;;8.40;;
26163;SDS011;13914;48.178;11.716;2023-06-05T06:37:39;12.90;;;7.72;;
26163;SDS011;13914;48.178;11.716;2023-06-05T06:40:06;12.60;;;7.63;;
26163;SDS011;13914;48.178;11.716;2023-06-05T06:42:36;12.63;;;7.85;;
26163;SDS011;13914;48.178;11.716;2023-06-05T06:45:03;15.52;;;7.50;;
26163;SDS011;13914;48.178;11.716;2023-06-05T06:47:29;11.30;;;7.13;;
26163;SDS011;13914;48.178;11.716;2023-06-05T06:49:55;10.05;;;6.57;;
26163;SDS011;13914;48.178;11.716;2023-06-05T06:52:22;13.15;;;7.43;;
26163;SDS011;13914;48.178;11.716;2023-06-05T06:54:48;11.13;;;6.25;;
26163;SDS011;13914;48.178;11.716;2023-06-05T06:57:14;11.10;;;6.88;;
26163;SDS011;13914;48.178;11.716;2023-06-05T06:59:40;11.32;;;6.70;;
26163;SDS011;13914;48.178;11.716;2023-06-05T07:02:10;14.88;;;5.32;;
26163;SDS011;13914;48.178;11.716;2023-06-05T07:04:42;11.05;;;6.80;;
26163;SDS011;13914;48.178;11.716;2023-06-05T07:07:09;9.30;;;6.13;;
26163;SDS011;13914;48.178;11.716;2023-06-05T07:09:42;13.40;;;6.10;;
26163;SDS011;13914;48.178;11.716;2023-06-05T07:12:11;9.20;;;6.15;;
26163;SDS011;13914;48.178;11.716;2023-06-05T07:14:38;12.00;;;6.78;;
26163;SDS011;13914;48.178;11.716;2023-06-05T07:17:05;16.08;;;7.13;;
26163;SDS011;13914;48.178;11.716;2023-06-05T07:19:31;11.10;;;6.95;;
26163;SDS011;13914;48.178;11.716;2023-06-05T07:21:58;8.93;;;6.38;;
26163;SDS011;13914;48.178;11.716;2023-06-05T07:24:27;10.18;;;6.53;;
26163;SDS011;13914;48.178;11.716;2023-06-05T07:26:55;15.10;;;6.90;;
26163;SDS011;13914;48.178;11.716;2023-06-05T07:29:24;9.65;;;5.75;;
26163;SDS011;13914;48.178;11.716;2023-06-05T07:31:51;12.65;;;6.47;;
26163;SDS011;13914;48.178;11.716;2023-06-05T07:34:18;11.32;;;6.25;;
26163;SDS011;13914;48.178;11.716;2023-06-05T07:36:46;9.00;;;6.20;;
26163;SDS011;13914;48.178;11.716;2023-06-05T07:39:13;10.32;;;5.68;;
26163;SDS011;13914;48.178;11.716;2023-06-05T07:41:40;11.07;;;5.82;;
26163;SDS011;13914;48.178;11.716;2023-06-05T07:44:08;13.95;;;5.85;;
26163;SDS011;13914;48.178;11.716;2023-06-05T07:46:35;9.88;;;5.53;;
26163;SDS011;13914;48.178;11.716;2023-06-05T07:49:03;10.15;;;5.78;;
26163;SDS011;13914;48.178;11.716;2023-06-05T07:51:28;9.20;;;5.40;;
26163;SDS011;13914;48.178;11.716;2023-06-05T07:53:58;10.45;;;6.18;;
26163;SDS011;13914;48.178;11.716;2023-06-05T07:56:25;11.25;;;6.25;;
26163;SDS011;13914;48.178;11.716;2023-06-05T07:58:51;10.18;;;6.15;;
26163;SDS011;13914;48.178;11.716;2023-06-05T08:01:17;11.43;;;5.40;;
26163;SDS011;13914;48.178;11.716;2023-06-05T08:03:43;8.45;;;5.13;;
26163;SDS011;13914;48.178;11.716;2023-06-05T08:06:09;10.15;;;5.40;;
26163;SDS011;13914;48.178;11.716;2023-06-05T08:15:53;16.98;;;6.63;;
26163;SDS011;13914;48.178;11.716;2023-06-05T08:18:18;11.10;;;5.13;;
26163;SDS011;13914;48.178;11.716;2023-06-05T08:20:46;12.00;;;6.10;;
26163;SDS011;13914;48.178;11.716;2023-06-05T08:23:12;9.13;;;5.70;;
26163;SDS011;13914;48.178;11.716;2023-06-05T08:30:29;13.80;;;5.97;;
26163;SDS011;13914;48.178;11.716;2023-06-05T08:32:55;9.35;;;5.45;;
26163;SDS011;13914;48.178;11.716;2023-06-05T08:35:21;11.60;;;5.90;;
26163;SDS011;13914;48.178;11.716;2023-06-05T08:37:47;11.68;;;5.35;;
26163;SDS011;13914;48.178;11.716;2023-06-05T08:40:13;7.85;;;5.35;;
26163;SDS011;13914;48.178;11.716;2023-06-05T08:42:43;8.60;;;5.70;;
26163;SDS011;13914;48.178;11.716;2023-06-05T08:45:09;7.95;;;5.22;;
26163;SDS011;13914;48.178;11.716;2023-06-05T08:47:35;10.05;;;4.70;;
26163;SDS011;13914;48.178;11.716;2023-06-05T08:50:07;12.40;;;5.60;;
26163;SDS011;13914;48.178;11.716;2023-06-05T08:55:05;10.30;;;5.00;;
26163;SDS011;13914;48.178;11.716;2023-06-05T08:57:33;12.13;;;5.82;;
26163;SDS011;13914;48.178;11.716;2023-06-05T09:00:03;7.10;;;5.40;;
26163;SDS011;13914;48.178;11.716;2023-06-05T09:02:38;11.50;;;5.70;;
26163;SDS011;13914;48.178;11.716;2023-06-05T09:07:41;9.00;;;4.65;;
26163;SDS011;13914;48.178;11.716;2023-06-05T09:10:21;11.40;;;5.50;;
26163;SDS011;13914;48.178;11.716;2023-06-05T09:12:59;7.53;;;5.30;;
26163;SDS011;13914;48.178;11.716;2023-06-05T09:15:30;7.85;;;5.28;;
26163;SDS011;13914;48.178;11.716;2023-06-05T09:18:02;14.07;;;5.45;;
26163;SDS011;13914;48.178;11.716;2023-06-05T09:20:33;11.07;;;5.20;;
26163;SDS011;13914;48.178;11.716;2023-06-05T09:23:04;8.05;;;4.88;;
26163;SDS011;13914;48.178;11.716;2023-06-05T09:28:16;8.55;;;5.18;;
26163;SDS011;13914;48.178;11.716;2023-06-05T09:30:58;10.57;;;5.60;;
26163;SDS011;13914;48.178;11.716;2023-06-05T09:33:30;8.63;;;5.38;;
26163;SDS011;13914;48.178;11.716;2023-06-05T09:36:01;10.98;;;5.82;;
26163;SDS011;13914;48.178;11.716;2023-06-05T09:38:40;11.45;;;5.47;;
26163;SDS011;13914;48.178;11.716;2023-06-05T09:41:10;7.55;;;4.78;;
26163;SDS011;13914;48.178;11.716;2023-06-05T09:43:39;9.02;;;4.95;;
26163;SDS011;13914;48.178;11.716;2023-06-05T09:46:06;8.07;;;5.57;;
26163;SDS011;13914;48.178;11.716;2023-06-05T09:48:33;9.82;;;5.22;;
26163;SDS011;13914;48.178;11.716;2023-06-05T09:51:16;7.22;;;4.90;;
26163;SDS011;13914;48.178;11.716;2023-06-05T09:56:14;9.98;;;5.15;;
26163;SDS011;13914;48.178;11.716;2023-06-05T09:58:50;6.78;;;4.50;;
26163;SDS011;13914;48.178;11.716;2023-06-05T10:01:18;13.35;;;4.97;;
26163;SDS011;13914;48.178;11.716;2023-06-05T10:03:53;8.70;;;4.95;;
26163;SDS011;13914;48.178;11.716;2023-06-05T10:06:22;8.23;;;4.60;;
26163;SDS011;13914;48.178;11.716;2023-06-05T10:08:53;6.30;;;4.45;;
26163;SDS011;13914;48.178;11.716;2023-06-05T10:11:21;8.68;;;5.10;;
26163;SDS011;13914;48.178;11.716;2023-06-05T10:13:50;8.05;;;4.32;;
26163;SDS011;13914;48.178;11.716;2023-06-05T10:16:16;12.50;;;4.90;;
26163;SDS011;13914;48.178;11.716;2023-06-05T10:18:45;10.82;;;4.70;;
26163;SDS011;13914;48.178;11.716;2023-06-05T10:21:15;8.05;;;4.93;;
26163;SDS011;13914;48.178;11.716;2023-06-05T10:23:49;11.43;;;4.95;;
26163;SDS011;13914;48.178;11.716;2023-06-05T10:32:29;9.82;;;4.40;;
26163;SDS011;13914;48.178;11.716;2023-06-05T10:40:54;5.95;;;4.60;;
26163;SDS011;13914;48.178;11.716;2023-06-05T10:43:29;10.15;;;4.85;;
26163;SDS011;13914;48.178;11.716;2023-06-05T10:49:06;6.85;;;4.30;;
26163;SDS011;13914;48.178;11.716;2023-06-05T10:57:02;7.65;;;4.32;;
26163;SDS011;13914;48.178;11.716;2023-06-05T10:59:35;6.10;;;3.97;;
26163;SDS011;13914;48.178;11.716;2023-06-05T11:07:19;6.78;;;4.18;;
26163;SDS011;13914;48.178;11.716;2023-06-05T11:15:05;5.80;;;3.90;;
26163;SDS011;13914;48.178;11.716;2023-06-05T11:17:39;7.82;;;3.60;;
26163;SDS011;13914;48.178;11.716;2023-06-05T11:20:08;6.85;;;3.95;;
26163;SDS011;13914;48.178;11.716;2023-06-05T11:27:47;11.00;;;3.80;;
26163;SDS011;13914;48.178;11.716;2023-06-05T11:30:18;17.45;;;4.10;;
26163;SDS011;13914;48.178;11.716;2023-06-05T11:32:46;6.28;;;3.92;;
26163;SDS011;13914;48.178;11.716;2023-06-05T11:35:12;6.97;;;3.88;;
26163;SDS011;13914;48.178;11.716;2023-06-05T11:37:38;13.27;;;4.28;;
26163;SDS011;13914;48.178;11.716;2023-06-05T11:40:05;6.82;;;3.70;;
26163;SDS011;13914;48.178;11.716;2023-06-05T11:42:36;4.88;;;3.38;;
26163;SDS011;13914;48.178;11.716;2023-06-05T11:45:11;9.13;;;3.85;;
26163;SDS011;13914;48.178;11.716;2023-06-05T11:47:38;7.20;;;3.50;;
26163;SDS011;13914;48.178;11.716;2023-06-05T11:50:11;5.65;;;3.60;;
26163;SDS011;13914;48.178;11.716;2023-06-05T11:52:39;14.85;;;4.10;;
26163;SDS011;13914;48.178;11.716;2023-06-05T11:55:12;9.48;;;4.10;;
26163;SDS011;13914;48.178;11.716;2023-06-05T11:57:48;13.38;;;4.50;;
26163;SDS011;13914;48.178;11.716;2023-06-05T12:00:15;9.35;;;3.70;;
26163;SDS011;13914;48.178;11.716;2023-06-05T12:02:48;8.88;;;3.75;;
26163;SDS011;13914;48.178;11.716;2023-06-05T12:07:40;6.75;;;3.47;;
26163;SDS011;13914;48.178;11.716;2023-06-05T12:10:07;6.50;;;3.25;;
26163;SDS011;13914;48.178;11.716;2023-06-05T12:12:34;9.00;;;3.38;;
26163;SDS011;13914;48.178;11.716;2023-06-05T12:15:21;16.60;;;3.88;;
26163;SDS011;13914;48.178;11.716;2023-06-05T12:17:54;6.07;;;3.88;;
26163;SDS011;13914;48.178;11.716;2023-06-05T12:20:21;10.48;;;4.40;;
26163;SDS011;13914;48.178;11.716;2023-06-05T12:22:48;7.10;;;3.88;;
26163;SDS011;13914;48.178;11.716;2023-06-05T12:25:15;6.40;;;3.85;;
26163;SDS011;13914;48.178;11.716;2023-06-05T12:27:44;8.48;;;3.50;;
26163;SDS011;13914;48.178;11.716;2023-06-05T12:30:11;5.85;;;3.38;;
26163;SDS011;13914;48.178;11.716;2023-06-05T12:32:38;8.77;;;4.03;;
26163;SDS011;13914;48.178;11.716;2023-06-05T12:37:33;9.57;;;3.80;;
26163;SDS011;13914;48.178;11.716;2023-06-05T12:40:04;10.15;;;3.63;;
26163;SDS011;13914;48.178;11.716;2023-06-05T12:42:34;7.35;;;3.60;;
26163;SDS011;13914;48.178;11.716;2023-06-05T12:45:03;8.18;;;3.33;;
26163;SDS011;13914;48.178;11.716;2023-06-05T12:47:30;11.30;;;3.92;;
26163;SDS011;13914;48.178;11.716;2023-06-05T12:49:56;10.02;;;3.70;;
26163;SDS011;13914;48.178;11.716;2023-06-05T12:52:24;6.60;;;3.05;;
26163;SDS011;13914;48.178;11.716;2023-06-05T12:54:54;11.55;;;3.40;;
26163;SDS011;13914;48.178;11.716;2023-06-05T12:57:21;11.93;;;3.45;;
26163;SDS011;13914;48.178;11.716;2023-06-05T12:59:47;7.00;;;3.15;;
26163;SDS011;13914;48.178;11.716;2023-06-05T13:04:39;4.75;;;3.00;;
26163;SDS011;13914;48.178;11.716;2023-06-05T13:07:05;8.77;;;2.80;;
26163;SDS011;13914;48.178;11.716;2023-06-05T13:09:32;5.38;;;3.10;;
26163;SDS011;13914;48.178;11.716;2023-06-05T13:11:58;8.90;;;2.85;;
26163;SDS011;13914;48.178;11.716;2023-06-05T13:16:53;7.43;;;2.72;;
26163;SDS011;13914;48.178;11.716;2023-06-05T13:21:46;6.93;;;2.70;;
26163;SDS011;13914;48.178;11.716;2023-06-05T13:24:12;7.07;;;3.00;;
26163;SDS011;13914;48.178;11.716;2023-06-05T13:26:37;9.10;;;3.00;;
26163;SDS011;13914;48.178;11.716;2023-06-05T13:29:03;10.18;;;2.88;;
26163;SDS011;13914;48.178;11.716;2023-06-05T13:31:29;4.65;;;2.75;;
26163;SDS011;13914;48.178;11.716;2023-06-05T13:33:55;7.10;;;2.65;;
26163;SDS011;13914;48.178;11.716;2023-06-05T13:36:22;4.57;;;2.17;;
26163;SDS011;13914;48.178;11.716;2023-06-05T13:41:14;4.18;;;2.60;;
26163;SDS011;13914;48.178;11.716;2023-06-05T13:43:40;6.65;;;2.90;;
26163;SDS011;13914;48.178;11.716;2023-06-05T13:46:06;7.95;;;2.85;;
26163;SDS011;13914;48.178;11.716;2023-06-05T13:48:32;4.47;;;2.50;;
26163;SDS011;13914;48.178;11.716;2023-06-05T13:50:59;20.40;;;3.30;;
26163;SDS011;13914;48.178;11.716;2023-06-05T13:53:26;7.78;;;3.28;;
26163;SDS011;13914;48.178;11.716;2023-06-05T13:55:52;8.52;;;2.65;;
26163;SDS011;13914;48.178;11.716;2023-06-05T13:58:18;7.68;;;2.95;;
26163;SDS011;13914;48.178;11.716;2023-06-05T14:00:45;6.78;;;2.72;;
26163;SDS011;13914;48.178;11.716;2023-06-05T14:03:11;5.45;;;3.38;;
26163;SDS011;13914;48.178;11.716;2023-06-05T14:05:38;7.82;;;2.88;;
26163;SDS011;13914;48.178;11.716;2023-06-05T14:08:04;6.90;;;2.58;;
26163;SDS011;13914;48.178;11.716;2023-06-05T14:10:32;6.07;;;2.90;;
26163;SDS011;13914;48.178;11.716;2023-06-05T14:13:00;5.40;;;2.72;;
26163;SDS011;13914;48.178;11.716;2023-06-05T14:15:26;5.35;;;2.92;;
26163;SDS011;13914;48.178;11.716;2023-06-05T14:17:52;4.50;;;2.55;;
26163;SDS011;13914;48.178;11.716;2023-06-05T14:20:19;5.00;;;2.97;;
26163;SDS011;13914;48.178;11.716;2023-06-05T14:22:45;6.57;;;2.60;;
26163;SDS011;13914;48.178;11.716;2023-06-05T14:25:11;4.55;;;2.75;;
26163;SDS011;13914;48.178;11.716;2023-06-05T14:27:37;6.88;;;2.85;;
26163;SDS011;13914;48.178;11.716;2023-06-05T14:30:04;5.43;;;3.15;;
26163;SDS011;13914;48.178;11.716;2023-06-05T14:32:33;4.97;;;2.58;;
26163;SDS011;13914;48.178;11.716;2023-06-05T14:34:58;4.07;;;2.50;;
26163;SDS011;13914;48.178;11.716;2023-06-05T14:37:24;6.80;;;2.97;;
26163;SDS011;13914;48.178;11.716;2023-06-05T14:39:50;4.75;;;3.05;;
26163;SDS011;13914;48.178;11.716;2023-06-05T14:42:16;4.28;;;2.50;;
26163;SDS011;13914;48.178;11.716;2023-06-05T14:44:42;7.10;;;2.67;;
26163;SDS011;13914;48.178;11.716;2023-06-05T14:47:07;5.57;;;2.60;;
26163;SDS011;13914;48.178;11.716;2023-06-05T14:49:33;3.92;;;2.63;;
26163;SDS011;13914;48.178;11.716;2023-06-05T14:51:59;4.97;;;2.35;;
26163;SDS011;13914;48.178;11.716;2023-06-05T14:54:25;10.32;;;2.75;;
26163;SDS011;13914;48.178;11.716;2023-06-05T14:56:50;7.40;;;2.70;;
26163;SDS011;13914;48.178;11.716;2023-06-05T14:59:16;5.90;;;2.75;;
26163;SDS011;13914;48.178;11.716;2023-06-05T15:01:42;3.20;;;2.17;;
26163;SDS011;13914;48.178;11.716;2023-06-05T15:04:08;8.55;;;2.63;;
26163;SDS011;13914;48.178;11.716;2023-06-05T15:06:33;5.10;;;3.03;;
26163;SDS011;13914;48.178;11.716;2023-06-05T15:08:59;4.22;;;2.42;;
26163;SDS011;13914;48.178;11.716;2023-06-05T15:11:25;3.30;;;2.60;;
26163;SDS011;13914;48.178;11.716;2023-06-05T15:13:51;4.72;;;3.00;;
26163;SDS011;13914;48.178;11.716;2023-06-05T15:16:16;4.97;;;2.78;;
26163;SDS011;13914;48.178;11.716;2023-06-05T15:18:42;4.25;;;2.40;;
26163;SDS011;13914;48.178;11.716;2023-06-05T15:21:08;3.83;;;2.55;;
26163;SDS011;13914;48.178;11.716;2023-06-05T15:26:00;6.57;;;2.60;;
26163;SDS011;13914;48.178;11.716;2023-06-05T15:28:26;6.68;;;3.03;;
26163;SDS011;13914;48.178;11.716;2023-06-05T15:30:51;6.00;;;2.75;;
26163;SDS011;13914;48.178;11.716;2023-06-05T15:33:17;3.72;;;2.60;;
26163;SDS011;13914;48.178;11.716;2023-06-05T15:35:43;6.25;;;2.80;;
26163;SDS011;13914;48.178;11.716;2023-06-05T15:38:11;5.50;;;3.30;;
26163;SDS011;13914;48.178;11.716;2023-06-05T15:40:37;11.20;;;3.85;;
26163;SDS011;13914;48.178;11.716;2023-06-05T15:43:09;5.82;;;3.17;;
26163;SDS011;13914;48.178;11.716;2023-06-05T15:45:38;7.00;;;3.00;;
26163;SDS011;13914;48.178;11.716;2023-06-05T15:48:05;11.07;;;3.22;;
26163;SDS011;13914;48.178;11.716;2023-06-05T15:50:31;3.72;;;3.00;;
26163;SDS011;13914;48.178;11.716;2023-06-05T15:52:57;5.13;;;2.70;;
26163;SDS011;13914;48.178;11.716;2023-06-05T15:55:23;8.68;;;3.65;;
26163;SDS011;13914;48.178;11.716;2023-06-05T15:57:49;3.45;;;2.60;;
26163;SDS011;13914;48.178;11.716;2023-06-05T16:00:17;7.70;;;3.20;;
26163;SDS011;13914;48.178;11.716;2023-06-05T16:02:44;5.18;;;2.67;;
26163;SDS011;13914;48.178;11.716;2023-06-05T16:05:11;5.85;;;3.10;;
26163;SDS011;13914;48.178;11.716;2023-06-05T16:07:37;3.83;;;2.63;;
26163;SDS011;13914;48.178;11.716;2023-06-05T16:12:30;5.85;;;2.65;;
26163;SDS011;13914;48.178;11.716;2023-06-05T16:14:56;3.78;;;2.80;;
26163;SDS011;13914;48.178;11.716;2023-06-05T16:17:22;4.55;;;3.40;;